Date,TemperatureHighF,TemperatureAvgF,TemperatureLowF,DewpointHighF,DewpointAvgF,DewpointLowF,HumidityHigh,HumidityAvg,HumidityLow,PressureMaxIn,PressureMinIn,WindSpeedMaxMPH,WindSpeedAvgMPH,GustSpeedMaxMPH,PrecipitationSumIn
2013-1-1,64.0,53.3,45.0,52.0,45.2,38.0,94,75,54,0.00,40.00,8,3,11,0.00
2013-1-2,65.0,55.2,52.0,53.0,50.8,48.0,95,86,56,0.00,40.00,10,3,14,0.00
2013-1-3,53.0,47.9,44.0,50.0,43.7,37.0,94,86,63,0.00,40.00,7,3,12,0.00
2013-1-4,58.0,44.0,33.0,40.0,32.6,21.0,95,68,35,0.00,40.00,10,3,14,0.00
2013-1-5,56.0,42.8,28.0,28.0,21.7,17.0,75,45,25,0.00,40.00,9,2,11,0.00
2013-1-6,51.0,46.5,42.0,47.0,38.2,27.0,93,74,44,0.00,40.00,11,4,18,0.00
2013-1-7,58.0,44.3,36.0,35.0,30.6,25.0,86,62,32,0.00,40.00,13,4,19,0.00
2013-1-8,60.0,47.2,38.0,41.0,35.6,29.0,74,64,48,0.00,40.00,8,4,13,0.00
2013-1-9,72.0,58.9,48.0,51.0,46.4,40.0,84,65,46,0.00,40.00,7,3,10,0.00
2013-1-10,77.0,63.1,54.0,59.0,51.5,45.0,94,70,35,0.00,40.00,12,5,20,0.00
2013-1-11,74.0,65.1,60.0,66.0,60.5,58.0,95,86,63,0.00,40.00,13,6,20,0.00
2013-1-12,82.0,67.9,57.0,64.0,56.7,51.0,95,72,37,0.00,40.00,13,4,19,0.00
2013-1-13,77.0,67.8,61.0,62.0,58.1,55.0,92,73,50,0.00,40.00,13,6,23,0.00
2013-1-14,80.0,66.9,61.0,61.0,55.3,-99.9,91,71,46,0.00,40.00,16,7,24,0.00
2013-1-15,77.0,69.7,62.0,59.0,55.8,53.0,88,63,47,0.00,40.00,13,6,20,0.00
2013-1-16,77.0,67.1,62.0,64.0,59.8,56.0,94,78,56,0.00,40.00,13,5,24,0.00
2013-1-17,69.0,57.0,42.0,65.0,53.5,34.0,95,88,68,0.00,40.00,25,9,42,0.00
2013-1-18,56.0,43.9,33.0,38.0,26.4,16.0,94,57,21,0.00,40.00,17,5,26,0.00
2013-1-19,64.0,45.2,34.0,34.0,23.8,17.0,75,45,23,0.00,40.00,7,3,13,0.00
2013-1-20,68.0,51.1,40.0,37.0,31.6,26.0,82,52,24,0.00,40.00,11,6,21,0.00
2013-1-21,64.0,50.4,33.0,36.0,27.1,16.0,88,45,19,0.00,40.00,14,7,24,0.00
2013-1-22,51.0,42.3,34.0,16.0,12.8,10.0,40,30,23,0.00,40.00,14,8,23,0.00
2013-1-23,57.0,42.9,29.0,28.0,17.9,10.0,48,37,28,0.00,40.00,15,6,26,0.00
2013-1-24,64.0,51.4,35.0,40.0,26.3,5.0,71,42,16,0.00,40.00,18,10,29,0.00
2013-1-25,39.0,32.8,27.0,21.0,10.4,2.0,48,39,28,0.00,40.00,8,3,14,0.00
2013-1-26,62.0,46.1,36.0,33.0,27.7,21.0,72,50,31,0.00,40.00,9,3,14,0.00
2013-1-27,43.0,36.0,32.0,28.0,27.4,27.0,81,71,54,0.00,40.00,9,4,14,0.00
2013-1-28,63.0,51.2,40.0,46.0,42.3,32.0,90,72,55,0.00,40.00,6,2,9,0.00
2013-1-29,78.0,59.8,43.0,60.0,50.2,42.0,94,74,45,0.00,40.00,14,4,21,0.00
2013-1-30,78.0,67.3,51.0,64.0,58.6,45.0,96,76,44,0.00,40.00,29,13,47,0.00
2013-1-31,53.0,46.8,40.0,45.0,18.9,12.0,81,35,20,0.00,40.00,20,12,33,0.00
2013-2-1,52.0,43.5,32.0,22.0,11.0,-1.0,39,28,14,0.00,40.00,20,9,31,0.00
2013-2-2,59.0,41.2,25.0,33.0,10.4,5.0,64,30,14,0.00,40.00,11,4,27,0.00
2013-2-3,62.0,47.9,37.0,37.0,27.9,18.0,86,51,22,0.00,40.00,21,9,32,0.00
2013-2-4,52.0,41.9,33.0,28.0,23.8,21.0,68,50,32,0.00,40.00,8,3,11,0.00
2013-2-5,67.0,51.4,36.0,48.0,35.7,27.0,84,57,36,0.00,40.00,16,5,25,0.00
2013-2-6,76.0,56.7,42.0,49.0,35.3,20.0,95,55,14,0.00,40.00,8,3,14,0.00
2013-2-7,53.0,48.1,45.0,48.0,41.1,25.0,96,80,34,0.00,40.00,19,9,30,0.00
2013-2-8,63.0,49.9,43.0,48.0,44.0,42.0,96,82,52,0.00,40.00,14,7,24,0.00
2013-2-9,67.0,48.9,30.0,44.0,25.7,17.0,92,46,18,0.00,40.00,9,3,14,0.00
2013-2-10,66.0,52.6,40.0,54.0,35.2,18.0,94,53,33,0.00,40.00,18,6,26,0.00
2013-2-11,67.0,59.2,54.0,63.0,57.2,53.0,95,93,83,0.00,40.00,15,8,23,0.00
2013-2-12,67.0,55.4,48.0,53.0,45.9,36.0,95,74,36,0.00,40.00,11,4,16,0.00
2013-2-13,57.0,49.9,46.0,55.0,46.8,38.0,95,89,66,0.00,40.00,17,7,29,0.00
2013-2-14,53.0,43.8,36.0,40.0,35.5,32.0,93,74,47,0.00,40.00,9,3,15,0.00
2013-2-15,67.0,47.5,32.0,44.0,32.4,23.0,95,64,22,0.00,40.00,9,2,18,0.00
2013-2-16,50.0,41.6,33.0,40.0,26.2,5.0,94,60,24,0.00,40.00,24,8,35,0.00
2013-2-17,49.0,36.0,27.0,9.0,5.8,1.0,42,29,16,0.00,40.00,16,8,28,0.00
2013-2-18,59.0,41.1,26.0,20.0,14.3,8.0,64,37,18,0.00,40.00,11,4,19,0.00
2013-2-19,55.0,44.0,39.0,45.0,32.4,19.0,95,65,39,0.00,40.00,11,6,19,0.00
2013-2-20,62.0,45.5,28.0,25.0,19.0,14.0,73,37,17,0.00,40.00,8,4,17,0.00
2013-2-21,70.0,52.6,36.0,26.0,19.6,16.0,43,29,15,0.00,40.00,9,3,14,0.00
2013-2-22,53.0,43.7,40.0,42.0,37.0,26.0,96,81,35,0.00,40.00,14,6,22,0.00
2013-2-23,46.0,42.7,39.0,45.0,41.7,38.0,96,96,96,0.00,40.00,12,4,31,0.00
2013-2-24,71.0,53.4,45.0,51.0,38.7,25.0,96,66,19,0.00,40.00,11,4,16,0.00
2013-2-25,50.0,46.2,40.0,37.0,30.8,25.0,83,56,41,0.00,40.00,16,7,27,0.00
2013-2-26,54.0,44.3,38.0,52.0,42.9,36.0,96,94,86,0.00,40.00,17,7,26,0.00
2013-2-27,63.0,49.8,40.0,44.0,33.9,27.0,95,58,29,0.00,40.00,18,9,26,0.00
2013-2-28,57.0,47.0,39.0,36.0,27.4,20.0,68,48,31,0.00,40.00,18,10,29,0.00
2013-3-1,58.0,42.8,31.0,27.0,23.1,20.0,74,48,27,0.00,40.00,15,7,24,0.00
2013-3-2,47.0,38.3,33.0,40.0,28.5,-99.9,88,70,54,0.00,40.00,14,7,21,0.00
2013-3-3,51.0,38.5,31.0,25.0,20.1,13.0,74,51,26,0.00,40.00,14,6,23,0.00
2013-3-4,60.0,42.8,25.0,24.0,16.7,12.0,75,39,15,0.00,40.00,10,3,17,0.00
2013-3-5,70.0,53.2,38.0,56.0,37.7,24.0,92,56,41,0.00,40.00,20,8,35,0.00
2013-3-6,50.0,42.1,35.0,33.0,19.6,15.0,61,41,29,0.00,40.00,27,14,44,0.00
2013-3-7,61.0,44.3,30.0,29.0,24.6,22.0,83,50,24,0.00,40.00,12,4,17,0.00
2013-3-8,63.0,47.9,35.0,28.0,20.9,12.0,58,38,16,0.00,40.00,12,6,23,0.00
2013-3-9,69.0,52.1,38.0,29.0,23.3,17.0,49,34,19,0.00,40.00,10,3,16,0.00
2013-3-10,72.0,56.2,41.0,45.0,34.5,26.0,74,47,23,0.00,40.00,14,5,21,0.00
2013-3-11,72.0,59.1,50.0,49.0,44.0,38.0,73,58,42,0.00,40.00,17,8,28,0.00
2013-3-12,69.0,61.9,52.0,49.0,35.4,27.0,90,39,27,0.00,40.00,16,9,22,0.00
2013-3-13,64.0,52.1,41.0,29.0,20.2,11.0,52,30,16,0.00,40.00,20,10,34,0.00
2013-3-14,56.0,43.1,32.0,21.0,15.6,12.0,51,34,19,0.00,40.00,13,6,24,0.00
2013-3-15,73.0,53.9,33.0,31.0,24.4,18.0,58,34,20,0.00,40.00,16,6,25,0.00
2013-3-16,81.0,66.4,54.0,40.0,34.4,30.0,50,32,19,0.00,40.00,24,12,32,0.00
2013-3-17,78.0,66.0,57.0,49.0,43.8,35.0,67,46,33,0.00,40.00,15,8,24,0.00
2013-3-18,68.0,59.2,47.0,60.0,51.4,46.0,97,76,60,0.00,40.00,26,5,51,0.00
2013-3-19,72.0,57.2,48.0,53.0,35.7,10.0,97,60,11,0.00,40.00,16,7,24,0.00
2013-3-20,64.0,53.9,46.0,19.0,14.7,11.0,27,21,15,0.00,40.00,12,5,20,0.00
2013-3-21,55.0,45.8,37.0,20.0,11.5,3.0,47,26,14,0.00,40.00,19,9,29,0.00
2013-3-22,51.0,42.8,36.0,25.0,15.0,10.0,44,32,27,0.00,40.00,9,3,14,0.00
2013-3-23,55.0,47.2,44.0,52.0,40.0,25.0,95,77,44,0.00,40.00,12,3,17,0.00
2013-3-24,49.0,47.3,45.0,48.0,45.7,43.0,95,94,90,0.00,40.00,16,6,28,0.00
2013-3-25,50.0,44.0,39.0,45.0,22.3,12.0,95,46,25,0.00,40.00,24,14,42,0.00
2013-3-26,50.0,40.3,31.0,23.0,17.7,13.0,62,41,29,0.00,40.00,16,10,27,0.00
2013-3-27,58.0,43.3,28.0,26.0,19.6,14.0,80,43,20,0.00,40.00,14,6,24,0.00
2013-3-28,62.0,47.8,31.0,26.0,19.3,15.0,65,35,17,0.00,40.00,19,5,26,0.00
2013-3-29,69.0,53.9,40.0,26.0,21.3,18.0,46,29,17,0.00,40.00,11,4,15,0.00
2013-3-30,76.0,61.6,51.0,41.0,36.8,25.0,64,41,27,0.00,40.00,12,4,21,0.00
2013-3-31,79.0,65.4,59.0,62.0,50.6,-99.9,90,64,34,0.00,40.00,24,8,40,0.00
2013-4-1,78.0,64.7,56.0,61.0,49.4,29.0,95,66,20,0.00,40.00,17,6,32,0.00
2013-4-2,74.0,60.6,45.0,41.0,33.5,25.0,83,41,19,0.00,40.00,15,5,24,0.00
2013-4-3,65.0,57.2,49.0,36.0,28.2,24.0,56,33,25,0.00,40.00,17,6,24,0.00
2013-4-4,51.0,45.2,41.0,44.0,41.2,35.0,96,87,54,0.00,40.00,18,8,29,0.00
2013-4-5,61.0,48.0,38.0,45.0,40.0,37.0,96,77,48,0.00,40.00,19,6,26,0.00
2013-4-6,75.0,58.3,40.0,44.0,33.3,21.0,95,50,14,0.00,40.00,14,4,19,0.00
2013-4-7,79.0,62.7,48.0,49.0,42.7,31.0,91,52,29,0.00,40.00,15,6,21,0.00
2013-4-8,81.0,67.7,54.0,55.0,49.0,42.0,93,56,28,0.00,40.00,12,6,19,0.00
2013-4-9,84.0,71.2,58.0,59.0,52.7,48.0,93,57,30,0.00,40.00,11,5,18,0.00
2013-4-10,85.0,72.0,59.0,60.0,54.8,47.0,94,60,32,0.00,40.00,12,6,21,0.00
2013-4-11,82.0,69.9,62.0,68.0,62.6,57.0,95,80,48,0.00,40.00,21,7,34,0.00
2013-4-12,82.0,71.1,59.0,68.0,56.9,34.0,94,68,24,0.00,40.00,18,10,32,0.00
2013-4-13,80.0,64.5,49.0,41.0,36.8,29.0,67,39,17,0.00,40.00,13,4,16,0.00
2013-4-14,70.0,59.9,50.0,60.0,48.3,38.0,95,67,46,0.00,40.00,18,3,37,0.00
2013-4-15,78.0,66.2,60.0,61.0,59.1,57.0,94,79,52,0.00,40.00,10,2,14,0.00
2013-4-16,84.0,71.1,61.0,63.0,56.7,50.0,94,65,33,0.00,40.00,9,3,13,0.00
2013-4-17,88.0,72.4,57.0,63.0,55.5,52.0,94,60,33,0.00,40.00,10,4,14,0.00
2013-4-18,84.0,71.9,62.0,64.0,57.8,54.0,92,63,40,0.00,40.00,14,7,20,0.00
2013-4-19,84.0,68.4,50.0,68.0,63.3,48.0,95,86,47,0.00,40.00,26,10,44,0.00
2013-4-20,68.0,55.1,44.0,49.0,38.0,28.0,94,60,24,0.00,40.00,14,5,21,0.00
2013-4-21,70.0,57.3,43.0,42.0,35.3,30.0,91,50,24,0.00,40.00,16,5,27,0.00
2013-4-22,70.0,58.5,50.0,39.0,32.8,28.0,61,40,25,0.00,40.00,16,9,26,0.00
2013-4-23,76.0,61.5,48.0,48.0,40.4,28.0,73,48,31,0.00,40.00,12,5,18,0.00
2013-4-24,81.0,66.2,55.0,55.0,51.2,47.0,94,64,33,0.00,40.00,15,7,24,0.00
2013-4-25,80.0,69.3,57.0,61.0,50.1,35.0,89,56,22,0.00,40.00,13,5,22,0.00
2013-4-26,79.0,64.4,52.0,51.0,40.9,29.0,59,43,31,0.00,40.00,16,6,26,0.00
2013-4-27,71.0,61.4,52.0,56.0,50.6,42.0,92,69,51,0.00,40.00,11,4,16,0.00
2013-4-28,74.0,62.5,56.0,65.0,56.4,-99.9,95,84,66,0.00,40.00,14,6,21,0.00
2013-4-29,73.0,64.7,60.0,66.0,61.2,59.0,95,89,63,0.00,40.00,9,2,19,0.00
2013-4-30,79.0,66.1,57.0,65.0,59.5,55.0,94,81,47,0.00,40.00,11,2,15,0.00
2013-5-1,71.0,63.4,58.0,60.0,55.7,51.0,94,78,53,0.00,40.00,14,8,21,0.00
2013-5-2,69.0,64.3,61.0,60.0,57.3,55.0,92,78,63,0.00,40.00,15,10,24,0.00
2013-5-3,67.0,61.1,57.0,61.0,56.6,53.0,94,85,73,0.00,40.00,13,8,23,0.00
2013-5-4,61.0,57.6,53.0,57.0,51.8,44.0,95,81,64,0.00,40.00,16,8,29,0.00
2013-5-5,72.0,60.9,56.0,67.0,57.4,51.0,95,89,56,0.00,40.00,11,5,24,0.00
2013-5-6,71.0,58.8,50.0,53.0,46.2,39.0,94,67,34,0.00,40.00,14,5,21,0.00
2013-5-7,74.0,59.7,50.0,57.0,47.5,42.0,93,68,37,0.00,40.00,11,4,18,0.00
2013-5-8,82.0,65.6,52.0,54.0,48.9,44.0,92,60,30,0.00,40.00,12,6,19,0.00
2013-5-9,87.0,71.4,57.0,58.0,53.5,48.0,89,58,30,0.00,40.00,11,4,19,0.00
2013-5-10,86.0,71.8,59.0,61.0,53.3,-99.9,91,59,31,0.00,40.00,15,5,22,0.00
2013-5-11,83.0,73.2,62.0,62.0,59.4,57.0,91,64,44,0.00,40.00,14,7,20,0.00
2013-5-12,78.0,69.0,58.0,64.0,47.2,-99.9,92,53,21,0.00,40.00,16,8,26,0.00
2013-5-13,73.0,61.1,50.0,38.0,33.6,28.0,57,37,21,0.00,40.00,14,7,23,0.00
2013-5-14,78.0,64.3,46.0,43.0,35.4,29.0,58,35,22,0.00,40.00,12,4,18,0.00
2013-5-15,90.0,74.0,61.0,56.0,49.2,42.0,56,43,30,0.00,40.00,14,8,22,0.00
2013-5-16,74.0,70.4,66.0,58.0,54.8,52.0,70,58,49,0.00,40.00,11,6,14,0.00